Time;durP1;ratioP1;P1;durP2;ratioP2;P2;SDS_P1;SDS_P2;PMS_P1;PMS_P2;Temp;Humidity;BMP_temperature;BMP_pressure;BME280_temperature;BME280_humidity;BME280_pressure;Samples;Min_cycle;Max_cycle;Signal;HPM_P1;HPM_P2
2021/08/25 07:42:25;;;;;;;6.87;6.03;;;28.70;89.50;;;;;;6110233;23;20738;-86
2021/08/25 07:44:54;;;;;;;8.70;6.03;;;28.20;90.00;;;;;;6108487;23;20410;-86
2021/08/25 07:47:21;;;;;;;5.63;4.37;;;28.20;90.20;;;;;;6110287;23;20442;-86
2021/08/25 07:49:48;;;;;;;7.13;5.20;;;28.40;90.10;;;;;;6110849;23;20398;-85
2021/08/25 07:52:17;;;;;;;7.83;5.23;;;27.90;90.40;;;;;;6109819;23;20418;-85
2021/08/25 07:54:44;;;;;;;10.40;4.60;;;28.00;90.20;;;;;;6112945;23;20399;-85
2021/08/25 07:57:11;;;;;;;5.10;4.60;;;27.90;90.20;;;;;;6111640;23;20458;-85
2021/08/25 07:59:39;;;;;;;7.33;4.70;;;27.70;90.60;;;;;;6111609;23;20450;-85
2021/08/25 08:02:06;;;;;;;5.20;4.70;;;27.20;90.70;;;;;;6110836;23;20447;-85
2021/08/25 08:04:33;;;;;;;5.40;4.10;;;26.70;92.00;;;;;;6111328;23;20417;-85
2021/08/25 08:07:00;;;;;;;7.03;5.43;;;27.30;91.30;;;;;;6109270;23;20642;-85
2021/08/25 08:09:29;;;;;;;11.70;5.23;;;27.80;90.90;;;;;;6109685;23;20446;-85
2021/08/25 08:11:56;;;;;;;6.87;5.70;;;27.90;89.90;;;;;;6110904;23;20466;-85
2021/08/25 08:14:23;;;;;;;4.70;3.67;;;27.80;90.10;;;;;;6109417;23;20446;-85
2021/08/25 08:16:55;;;;;;;4.70;4.20;;;27.20;90.50;;;;;;6111469;23;20913;-85
2021/08/25 08:19:23;;;;;;;4.53;3.50;;;27.30;90.70;;;;;;6111992;23;20815;-85
2021/08/25 08:21:51;;;;;;;6.33;4.40;;;27.20;91.10;;;;;;6106634;23;20418;-85
2021/08/25 08:24:18;;;;;;;5.03;2.97;;;27.50;90.10;;;;;;6106904;23;20929;-86
2021/08/25 08:26:47;;;;;;;6.93;3.53;;;27.80;90.50;;;;;;6107158;23;20462;-85
2021/08/25 08:29:15;;;;;;;6.27;3.60;;;27.80;90.30;;;;;;6110974;23;20418;-84
2021/08/25 08:31:42;;;;;;;5.47;3.17;;;28.00;87.30;;;;;;6110829;23;20488;-85
2021/08/25 08:34:10;;;;;;;5.60;3.27;;;28.40;86.50;;;;;;6106293;23;20454;-84
2021/08/25 08:36:37;;;;;;;3.63;2.50;;;28.50;85.80;;;;;;6106212;23;20434;-85
2021/08/25 08:39:04;;;;;;;6.43;2.80;;;28.60;84.30;;;;;;6106807;23;20529;-84
2021/08/25 08:41:32;;;;;;;5.10;2.77;;;28.40;85.30;;;;;;6105529;23;20397;-85
2021/08/25 08:44:01;;;;;;;5.77;2.27;;;28.20;85.70;;;;;;6108557;23;20411;-85
2021/08/25 08:46:28;;;;;;;3.50;2.30;;;28.70;84.80;;;;;;6109748;23;20469;-86
2021/08/25 08:48:56;;;;;;;5.67;2.30;;;28.90;83.10;;;;;;6122123;23;20437;-86
2021/08/25 08:51:25;;;;;;;4.27;3.30;;;28.90;82.90;;;;;;6109955;23;20414;-85
2021/08/25 08:53:53;;;;;;;4.10;2.40;;;29.10;81.50;;;;;;6109469;23;20540;-86
2021/08/25 08:56:22;;;;;;;5.53;2.53;;;29.30;80.60;;;;;;6108834;23;20439;-86
2021/08/25 08:58:50;;;;;;;4.73;2.60;;;29.50;81.60;;;;;;6111038;23;20442;-86
2021/08/25 09:01:19;;;;;;;7.00;3.23;;;29.40;80.60;;;;;;6109896;23;20438;-84
2021/08/25 09:03:46;;;;;;;2.57;2.00;;;29.00;81.70;;;;;;6113372;23;20422;-85
2021/08/25 09:06:13;;;;;;;3.70;2.60;;;29.00;80.40;;;;;;6113019;23;20434;-84
2021/08/25 09:08:42;;;;;;;3.50;2.30;;;29.20;79.40;;;;;;6112344;23;20398;-85
2021/08/25 09:11:11;;;;;;;3.83;2.20;;;28.90;79.30;;;;;;6123452;23;20399;-86
2021/08/25 09:13:42;;;;;;;3.23;2.10;;;29.20;79.30;;;;;;6124163;23;20409;-86
2021/08/25 09:16:24;;;;;;;5.40;2.97;;;29.80;77.90;;;;;;6123999;23;20453;-87
2021/08/25 09:19:02;;;;;;;5.80;2.23;;;30.00;76.70;;;;;;6109884;23;20824;-85
2021/08/25 09:21:34;;;;;;;5.83;2.20;;;28.80;77.90;;;;;;6111219;23;20387;-85
2021/08/25 09:24:04;;;;;;;5.70;2.30;;;27.10;82.20;;;;;;6109232;23;20414;-85
2021/08/25 09:26:32;;;;;;;3.10;2.10;;;26.80;84.80;;;;;;6107844;23;20796;-86
2021/08/25 09:29:15;;;;;;;3.73;2.13;;;27.10;85.60;;;;;;6107159;23;20407;-84
2021/08/25 09:31:45;;;;;;;3.37;2.37;;;26.70;85.40;;;;;;6107830;23;20399;-85
2021/08/25 09:34:27;;;;;;;5.10;2.03;;;26.00;87.10;;;;;;6109046;23;20488;-86
2021/08/25 09:37:08;;;;;;;2.93;1.80;;;24.80;90.30;;;;;;6111574;23;20434;-85
2021/08/25 09:39:36;;;;;;;2.90;2.00;;;24.30;91.70;;;;;;6115002;23;20466;-84
2021/08/25 09:42:05;;;;;;;3.23;2.03;;;23.80;92.20;;;;;;6112492;23;20414;-85
2021/08/25 09:44:32;;;;;;;2.53;1.67;;;23.60;92.70;;;;;;6115014;23;20465;-86
2021/08/25 09:46:59;;;;;;;4.90;1.80;;;23.50;92.50;;;;;;6111547;23;20423;-86
2021/08/25 09:49:28;;;;;;;4.57;2.07;;;23.20;93.10;;;;;;6113260;23;20421;-86
2021/08/25 09:51:55;;;;;;;5.63;2.07;;;22.80;93.60;;;;;;6114620;23;20456;-85
2021/08/25 09:54:23;;;;;;;4.00;1.33;;;22.90;94.50;;;;;;6114874;23;20390;-85
2021/08/25 09:56:53;;;;;;;2.90;1.57;;;23.60;93.40;;;;;;6114915;23;20441;-85
2021/08/25 09:59:22;;;;;;;2.60;1.50;;;23.90;93.20;;;;;;6116769;23;20430;-85
2021/08/25 10:01:50;;;;;;;3.97;2.73;;;24.40;93.00;;;;;;6116283;23;20420;-86
2021/08/25 10:04:18;;;;;;;2.10;1.80;;;25.20;91.30;;;;;;6113522;23;20421;-85
2021/08/25 10:06:49;;;;;;;4.07;1.40;;;25.80;89.60;;;;;;6115798;23;20457;-85
2021/08/25 10:09:16;;;;;;;3.10;1.73;;;26.40;88.90;;;;;;6114553;23;20399;-85
2021/08/25 10:11:46;;;;;;;3.30;1.77;;;26.10;87.90;;;;;;6115855;23;20427;-86
2021/08/25 10:14:16;;;;;;;2.13;1.37;;;25.40;88.70;;;;;;6117355;23;20478;-87
2021/08/25 10:16:45;;;;;;;3.47;1.70;;;24.90;89.50;;;;;;6113074;23;20426;-85
2021/08/25 10:19:40;;;;;;;5.00;1.73;;;25.30;90.00;;;;;;6110542;23;20442;-85
2021/08/25 10:22:27;;;;;;;3.10;1.87;;;26.00;88.50;;;;;;6110060;23;20846;-84
2021/08/25 10:25:06;;;;;;;2.37;1.17;;;26.60;86.00;;;;;;6110198;23;20477;-86
2021/08/25 10:27:36;;;;;;;2.77;1.73;;;27.10;84.80;;;;;;6111095;23;20580;-85
2021/08/25 10:30:12;;;;;;;2.00;1.33;;;27.20;84.30;;;;;;6111629;23;20414;-86
2021/08/25 10:33:00;;;;;;;2.27;1.47;;;27.30;83.40;;;;;;6110998;23;20413;-84
2021/08/25 10:35:32;;;;;;;4.37;1.40;;;26.90;82.90;;;;;;6114885;23;20426;-85
2021/08/25 10:38:25;;;;;;;1.43;1.13;;;26.00;85.30;;;;;;6115837;23;20405;-86
2021/08/25 10:40:54;;;;;;;4.43;1.67;;;25.10;88.60;;;;;;6123165;23;20441;-86
2021/08/25 10:43:43;;;;;;;3.03;1.67;;;24.40;90.20;;;;;;6123224;23;20466;-87
2021/08/25 10:46:13;;;;;;;3.97;1.57;;;23.80;91.10;;;;;;6123533;23;20410;-87
2021/08/25 10:48:49;;;;;;;2.17;1.20;;;23.50;91.70;;;;;;6122983;23;20401;-85
2021/08/25 10:51:38;;;;;;;6.07;1.27;;;23.60;92.50;;;;;;6122743;23;20446;-85
2021/08/25 10:54:13;;;;;;;2.17;1.10;;;24.00;91.90;;;;;;6123513;23;20421;-86
2021/08/25 10:56:47;;;;;;;2.47;1.23;;;23.90;91.50;;;;;;6121916;23;20498;-85
2021/08/25 10:59:20;;;;;;;5.80;1.50;;;24.00;91.70;;;;;;6104635;23;20442;-85
2021/08/25 11:01:48;;;;;;;2.73;1.10;;;23.90;91.90;;;;;;6110489;23;20410;-85
2021/08/25 11:04:17;;;;;;;3.50;1.20;;;24.00;92.00;;;;;;6106179;23;20846;-86
2021/08/25 11:06:51;;;;;;;2.33;1.10;;;23.90;92.10;;;;;;6107261;23;20434;-86
2021/08/25 11:09:28;;;;;;;1.83;1.00;;;23.70;92.60;;;;;;6106736;23;20423;-86
2021/08/25 11:12:01;;;;;;;1.47;1.13;;;23.40;93.30;;;;;;6107257;23;20474;-85
2021/08/25 11:14:34;;;;;;;2.40;1.77;;;23.30;93.80;;;;;;6115673;23;20817;-85
2021/08/25 11:17:07;;;;;;;6.20;1.20;;;23.30;93.90;;;;;;6110178;23;20433;-86
2021/08/25 11:19:37;;;;;;;3.03;1.43;;;23.30;93.90;;;;;;6111402;23;20509;-85
2021/08/25 11:22:05;;;;;;;2.30;1.37;;;23.60;93.40;;;;;;6111627;23;20436;-85
2021/08/25 11:24:42;;;;;;;2.30;1.73;;;23.80;93.20;;;;;;6112262;23;20418;-85
2021/08/25 11:27:21;;;;;;;1.40;1.10;;;23.90;92.60;;;;;;6116781;23;20438;-86
2021/08/25 11:30:10;;;;;;;2.40;1.20;;;24.30;92.20;;;;;;6112810;23;20414;-85
2021/08/25 11:32:37;;;;;;;2.70;1.20;;;24.60;91.00;;;;;;6115376;23;20426;-86
2021/08/25 11:35:06;;;;;;;3.27;1.27;;;24.50;91.00;;;;;;6113770;23;20418;-86
2021/08/25 11:37:34;;;;;;;2.80;1.40;;;24.10;91.60;;;;;;6115555;23;20438;-86
2021/08/25 11:40:08;;;;;;;2.20;1.97;;;23.50;92.80;;;;;;6116752;23;20449;-86
2021/08/25 11:42:37;;;;;;;1.40;1.30;;;23.10;94.20;;;;;;6115252;23;20384;-84
2021/08/25 11:45:16;;;;;;;1.50;1.37;;;22.50;94.90;;;;;;6117470;23;20398;-85
2021/08/25 11:47:51;;;;;;;4.03;1.30;;;22.40;95.90;;;;;;6113841;23;20421;-86
2021/08/25 11:50:20;;;;;;;5.30;1.47;;;22.40;96.50;;;;;;6112443;23;20421;-85
2021/08/25 11:52:47;;;;;;;3.33;1.53;;;22.60;96.80;;;;;;6110985;23;20452;-85
2021/08/25 11:55:16;;;;;;;3.50;1.47;;;22.70;96.30;;;;;;6110320;23;20528;-85
2021/08/25 11:57:46;;;;;;;2.50;1.43;;;22.70;95.40;;;;;;6111545;23;20518;-85
2021/08/25 12:00:16;;;;;;;2.60;1.30;;;22.50;95.50;;;;;;6108847;23;20509;-85
2021/08/25 12:03:02;;;;;;;2.47;1.50;;;22.50;95.80;;;;;;6108850;23;20425;-85
2021/08/25 12:05:31;;;;;;;2.20;1.00;;;22.60;95.10;;;;;;6109597;23;20473;-85
2021/08/25 12:08:09;;;;;;;3.93;0.97;;;22.50;95.50;;;;;;6111439;23;20412;-86
2021/08/25 12:10:39;;;;;;;1.73;0.90;;;22.40;96.30;;;;;;6114965;23;20391;-85
2021/08/25 12:13:07;;;;;;;3.00;1.27;;;22.50;96.80;;;;;;6115951;23;20711;-84
2021/08/25 12:15:46;;;;;;;2.03;1.30;;;22.50;96.90;;;;;;6113064;23;20488;-86
2021/08/25 12:18:14;;;;;;;2.70;1.10;;;22.90;96.70;;;;;;6112961;23;20461;-85
2021/08/25 12:20:44;;;;;;;4.57;1.70;;;23.30;95.50;;;;;;6110273;23;20497;-86
2021/08/25 12:23:13;;;;;;;2.20;1.27;;;23.60;94.90;;;;;;6112095;23;20379;-86
2021/08/25 12:25:43;;;;;;;2.60;1.40;;;23.60;94.50;;;;;;6107808;23;20509;-86
2021/08/25 12:28:12;;;;;;;1.80;1.50;;;23.60;95.00;;;;;;6109004;23;20413;-86
2021/08/25 12:30:41;;;;;;;2.33;1.03;;;23.50;95.20;;;;;;6106911;23;20442;-86
2021/08/25 12:33:10;;;;;;;1.93;1.23;;;23.50;95.00;;;;;;6107168;23;20410;-86
2021/08/25 12:35:39;;;;;;;3.00;1.07;;;23.30;94.60;;;;;;6110054;23;20428;-87
2021/08/25 12:38:07;;;;;;;1.90;1.30;;;23.10;94.90;;;;;;6118973;23;20425;-86
2021/08/25 12:40:34;;;;;;;1.90;0.93;;;22.70;95.30;;;;;;6120332;23;20438;-86
2021/08/25 12:43:03;;;;;;;4.50;0.90;;;22.70;95.70;;;;;;6114472;23;20497;-86
2021/08/25 12:45:31;;;;;;;5.53;1.20;;;22.80;95.30;;;;;;6115535;23;20416;-86
2021/08/25 12:47:58;;;;;;;1.70;0.90;;;22.70;95.30;;;;;;6118463;23;20418;-86
2021/08/25 12:50:26;;;;;;;2.63;1.20;;;22.60;96.00;;;;;;6118015;23;20394;-85
2021/08/25 12:52:54;;;;;;;5.07;2.33;;;22.60;96.00;;;;;;6118535;23;20624;-86
2021/08/25 12:55:22;;;;;;;3.63;1.30;;;22.50;96.10;;;;;;6117010;23;20499;-85
2021/08/25 12:57:50;;;;;;;1.30;0.80;;;22.60;96.10;;;;;;6117073;23;20431;-84
2021/08/25 13:00:19;;;;;;;1.73;1.03;;;22.70;96.00;;;;;;6118254;23;20442;-86
2021/08/25 13:02:46;;;;;;;3.07;1.30;;;22.60;95.70;;;;;;6117355;23;20898;-86
2021/08/25 13:05:14;;;;;;;2.60;1.17;;;22.70;96.00;;;;;;6107542;23;20411;-85
2021/08/25 13:07:42;;;;;;;1.37;0.70;;;22.80;96.20;;;;;;6107730;23;20437;-85
2021/08/25 13:10:11;;;;;;;1.93;0.83;;;22.80;95.60;;;;;;6108569;23;20435;-84
2021/08/25 13:12:38;;;;;;;3.73;1.00;;;22.50;96.10;;;;;;6109278;23;20411;-85
2021/08/25 13:15:07;;;;;;;1.77;0.90;;;22.50;96.60;;;;;;6109608;23;20441;-85
2021/08/25 13:17:35;;;;;;;2.70;0.80;;;22.40;97.30;;;;;;6118470;23;20439;-86
2021/08/25 13:20:03;;;;;;;1.60;1.10;;;22.30;97.50;;;;;;6113899;23;20512;-86
2021/08/25 13:22:30;;;;;;;3.47;1.23;;;22.30;97.90;;;;;;6108514;23;20420;-86
2021/08/25 13:24:57;;;;;;;2.17;1.10;;;22.20;98.00;;;;;;6111188;23;20422;-85
2021/08/25 13:27:25;;;;;;;1.50;0.70;;;22.00;98.90;;;;;;6113912;23;20413;-85
2021/08/25 13:29:52;;;;;;;8.83;2.00;;;21.80;99.10;;;;;;6108156;23;20469;-86
2021/08/25 13:32:19;;;;;;;2.73;1.10;;;21.50;99.90;;;;;;6107069;23;20493;-85
2021/08/25 13:34:47;;;;;;;9.03;1.47;;;21.60;99.90;;;;;;6106922;23;20424;-85
2021/08/25 13:37:15;;;;;;;2.90;0.80;;;21.70;99.90;;;;;;6106085;23;20466;-85
2021/08/25 13:39:42;;;;;;;2.73;1.00;;;21.70;99.90;;;;;;6106749;23;20555;-84
2021/08/25 13:42:09;;;;;;;2.60;0.83;;;21.80;99.90;;;;;;6105037;23;20423;-85
2021/08/25 13:44:37;;;;;;;2.50;1.10;;;22.00;99.60;;;;;;6115565;23;20401;-86
2021/08/25 13:47:04;;;;;;;4.40;1.17;;;22.10;99.20;;;;;;6123063;23;20444;-86
2021/08/25 13:49:32;;;;;;;2.20;0.90;;;21.90;99.50;;;;;;6123142;23;20408;-86
2021/08/25 13:52:00;;;;;;;2.30;1.00;;;21.70;99.90;;;;;;6121950;23;20397;-86
2021/08/25 13:54:27;;;;;;;2.23;1.07;;;21.50;99.90;;;;;;6107382;23;20445;-84
2021/08/25 13:56:54;;;;;;;3.00;1.30;;;21.30;99.90;;;;;;6105553;23;20442;-86
2021/08/25 13:59:23;;;;;;;2.67;1.43;;;21.10;99.90;;;;;;6105559;23;20482;-85
2021/08/25 14:01:50;;;;;;;3.60;1.40;;;21.00;99.90;;;;;;6107496;23;20541;-85
2021/08/25 14:04:17;;;;;;;1.97;1.10;;;20.90;99.90;;;;;;6110273;23;20421;-85
2021/08/25 14:06:45;;;;;;;2.50;1.97;;;20.90;99.90;;;;;;6107982;23;20583;-85
2021/08/25 14:09:13;;;;;;;4.20;2.93;;;21.00;99.90;;;;;;6109423;23;20412;-85
2021/08/25 14:11:40;;;;;;;1.93;1.40;;;21.20;99.90;;;;;;6107874;23;20407;-86
2021/08/25 14:14:08;;;;;;;3.63;1.90;;;21.40;99.90;;;;;;6105329;23;20480;-85
2021/08/25 14:16:36;;;;;;;2.20;1.40;;;21.40;99.90;;;;;;6108167;23;20497;-86
2021/08/25 14:19:03;;;;;;;3.30;1.13;;;21.10;99.90;;;;;;6112391;23;20425;-85
2021/08/25 14:21:31;;;;;;;1.80;1.50;;;21.00;99.90;;;;;;6122700;23;20452;-87
2021/08/25 14:23:58;;;;;;;1.40;1.20;;;21.00;99.90;;;;;;6122940;23;20390;-86
2021/08/25 14:26:26;;;;;;;3.40;1.20;;;21.10;99.90;;;;;;6122744;23;20442;-86
2021/08/25 14:28:54;;;;;;;2.77;1.50;;;21.10;99.90;;;;;;6122656;23;20471;-86
2021/08/25 14:31:21;;;;;;;3.67;1.63;;;21.30;99.90;;;;;;6115482;23;20430;-85
2021/08/25 14:33:48;;;;;;;4.10;0.90;;;21.40;99.90;;;;;;6109920;23;20416;-85
2021/08/25 14:36:15;;;;;;;1.60;1.07;;;21.40;99.90;;;;;;6109465;23;20532;-85
2021/08/25 14:38:43;;;;;;;2.43;1.03;;;21.50;99.90;;;;;;6110855;23;20428;-85
2021/08/25 14:41:10;;;;;;;3.37;1.30;;;21.60;99.90;;;;;;6110651;23;20473;-85
2021/08/25 14:43:39;;;;;;;3.93;1.50;;;21.40;99.90;;;;;;6109441;23;20866;-85
2021/08/25 14:46:06;;;;;;;4.43;1.47;;;21.40;99.90;;;;;;6109854;23;20980;-86
2021/08/25 14:48:35;;;;;;;1.73;1.37;;;21.10;99.90;;;;;;6110621;23;20416;-86
2021/08/25 14:51:02;;;;;;;1.77;1.17;;;21.00;99.90;;;;;;6115516;23;20766;-86
2021/08/25 14:53:29;;;;;;;2.10;1.60;;;20.90;99.90;;;;;;6106935;23;20734;-86
2021/08/25 14:55:57;;;;;;;4.07;1.20;;;20.80;99.90;;;;;;6115367;23;20413;-87
2021/08/25 14:58:25;;;;;;;2.63;1.50;;;20.80;99.90;;;;;;6122583;23;20414;-87
2021/08/25 15:00:54;;;;;;;1.33;1.13;;;20.80;99.90;;;;;;6123544;23;20436;-86
2021/08/25 15:03:25;;;;;;;4.07;1.50;;;20.60;99.90;;;;;;6123487;23;20424;-86
2021/08/25 15:05:52;;;;;;;1.60;1.30;;;20.50;99.90;;;;;;6123310;23;20421;-85
2021/08/25 15:08:19;;;;;;;1.40;1.20;;;20.40;99.90;;;;;;6122696;23;20414;-85
2021/08/25 15:10:48;;;;;;;3.40;1.73;;;20.10;99.90;;;;;;6122809;23;20409;-86
2021/08/25 15:13:15;;;;;;;3.10;1.30;;;19.80;99.90;;;;;;6122504;23;20417;-85
2021/08/25 15:15:43;;;;;;;2.83;1.53;;;19.90;99.90;;;;;;6110396;23;20408;-85
2021/08/25 15:18:13;;;;;;;2.60;2.17;;;19.80;99.90;;;;;;6108572;23;20405;-84
2021/08/25 15:20:40;;;;;;;2.20;1.17;;;19.90;99.90;;;;;;6110342;23;20449;-84
2021/08/25 15:23:07;;;;;;;5.73;1.80;;;19.80;99.90;;;;;;6111616;23;20405;-85
2021/08/25 15:25:34;;;;;;;7.30;1.57;;;19.80;99.90;;;;;;6111829;23;20843;-85
2021/08/25 15:28:02;;;;;;;4.47;2.40;;;19.90;99.90;;;;;;6112231;23;20426;-85
2021/08/25 15:30:29;;;;;;;1.97;1.77;;;19.90;99.90;;;;;;6112401;23;20429;-86
2021/08/25 15:32:57;;;;;;;3.47;1.47;;;19.80;99.90;;;;;;6111162;23;20425;-86
2021/08/25 15:35:27;;;;;;;5.97;1.70;;;19.80;99.90;;;;;;6110236;23;20401;-83
2021/08/25 15:37:54;;;;;;;2.00;1.70;;;19.80;99.90;;;;;;6112643;23;20407;-85
2021/08/25 15:40:21;;;;;;;2.83;1.90;;;19.80;99.90;;;;;;6112004;23;20446;-84
2021/08/25 15:42:49;;;;;;;3.40;2.00;;;19.60;99.90;;;;;;6111635;23;20470;-84
2021/08/25 15:45:16;;;;;;;3.40;1.70;;;19.70;99.90;;;;;;6112858;23;20420;-84
2021/08/25 15:47:43;;;;;;;5.23;2.90;;;19.70;99.90;;;;;;6112562;23;20665;-84
2021/08/25 15:50:11;;;;;;;5.30;1.80;;;19.60;99.90;;;;;;6112470;23;20441;-84
2021/08/25 15:52:39;;;;;;;2.40;1.87;;;19.50;99.90;;;;;;6112972;23;20424;-83
2021/08/25 15:55:08;;;;;;;4.73;2.27;;;19.40;99.90;;;;;;6111355;23;20477;-83
2021/08/25 15:57:36;;;;;;;4.93;3.03;;;19.20;99.90;;;;;;6111943;23;20466;-83
2021/08/25 16:00:05;;;;;;;4.40;2.13;;;19.10;99.90;;;;;;6112617;23;20457;-83
2021/08/25 16:02:32;;;;;;;3.50;2.90;;;18.90;99.90;;;;;;6113156;23;20497;-84
2021/08/25 16:04:59;;;;;;;5.20;3.00;;;18.80;99.90;;;;;;6113624;23;20425;-84
2021/08/25 16:07:26;;;;;;;3.77;2.60;;;18.80;99.90;;;;;;6115242;23;20762;-83
2021/08/25 16:09:55;;;;;;;2.90;2.70;;;18.70;99.90;;;;;;6113621;23;20488;-82
2021/08/25 16:12:24;;;;;;;4.83;2.93;;;18.80;99.90;;;;;;6111395;23;20406;-84
2021/08/25 16:14:51;;;;;;;4.10;3.00;;;18.80;99.90;;;;;;6112001;23;20449;-83
2021/08/25 16:17:18;;;;;;;5.40;3.10;;;18.90;99.90;;;;;;6113136;23;20437;-86
2021/08/25 16:19:46;;;;;;;4.83;3.57;;;19.00;99.90;;;;;;6115381;23;20485;-88
2021/08/25 16:22:13;;;;;;;3.50;3.20;;;19.10;99.90;;;;;;6116116;23;20537;-86
2021/08/25 16:24:40;;;;;;;3.20;2.70;;;19.10;99.90;;;;;;6121317;23;20426;-86
2021/08/25 16:27:12;;;;;;;2.90;2.40;;;18.90;99.90;;;;;;6120353;23;20424;-84
2021/08/25 16:29:40;;;;;;;4.00;2.90;;;18.90;99.90;;;;;;6119565;23;20414;-83
2021/08/25 16:32:08;;;;;;;4.30;2.27;;;18.90;99.90;;;;;;6113746;23;20410;-85
2021/08/25 16:34:35;;;;;;;3.50;2.70;;;18.80;99.90;;;;;;6109581;23;20526;-83
2021/08/25 16:37:03;;;;;;;2.83;2.50;;;18.80;99.90;;;;;;6111862;23;20422;-86
2021/08/25 16:39:31;;;;;;;2.73;2.53;;;18.80;99.90;;;;;;6109016;23;20498;-88
2021/08/25 16:41:58;;;;;;;3.57;3.10;;;18.80;99.90;;;;;;6107332;23;20481;-86
2021/08/25 16:44:26;;;;;;;3.93;2.90;;;18.70;99.90;;;;;;6108969;23;20495;-86
2021/08/25 16:46:53;;;;;;;8.27;4.13;;;18.60;99.90;;;;;;6108232;23;20505;-83
2021/08/25 16:49:21;;;;;;;5.37;3.67;;;18.40;99.90;;;;;;6111138;23;20413;-85
2021/08/25 16:51:48;;;;;;;6.27;3.90;;;18.30;99.90;;;;;;6108928;23;20425;-85
2021/08/25 16:54:15;;;;;;;6.57;4.30;;;18.30;99.90;;;;;;6111871;23;20418;-84
2021/08/25 16:56:42;;;;;;;5.70;4.10;;;18.20;99.90;;;;;;6112050;23;20493;-84
2021/08/25 16:59:10;;;;;;;6.17;5.00;;;18.10;99.90;;;;;;6113566;23;20467;-83
2021/08/25 17:01:39;;;;;;;7.60;4.40;;;18.10;99.90;;;;;;6120604;23;20454;-83
2021/08/25 17:04:06;;;;;;;7.07;5.77;;;18.00;99.90;;;;;;6116706;23;20416;-83
2021/08/25 17:06:33;;;;;;;5.30;4.80;;;17.90;99.90;;;;;;6112560;23;20438;-83
2021/08/25 17:09:00;;;;;;;6.18;5.18;;;18.00;99.90;;;;;;6111668;23;20910;-85
2021/08/25 17:11:27;;;;;;;5.70;4.30;;;17.90;99.90;;;;;;6112701;23;20178;-83
2021/08/25 17:13:54;;;;;;;5.20;4.70;;;17.90;99.90;;;;;;6113184;23;20414;-83
2021/08/25 17:16:22;;;;;;;8.80;5.00;;;17.80;99.90;;;;;;6113969;23;20452;-82
2021/08/25 17:18:51;;;;;;;6.57;4.43;;;17.80;99.90;;;;;;6112919;23;20448;-83
2021/08/25 17:21:18;;;;;;;5.20;3.70;;;17.80;99.90;;;;;;6112644;23;20442;-83
2021/08/25 17:23:45;;;;;;;4.30;3.90;;;17.80;99.90;;;;;;6112622;23;20417;-83
2021/08/25 17:26:13;;;;;;;4.50;3.60;;;17.80;99.90;;;;;;6110302;23;20438;-83
2021/08/25 17:28:40;;;;;;;5.50;4.43;;;17.90;99.90;;;;;;6110910;23;20425;-84
2021/08/25 17:31:07;;;;;;;6.13;4.37;;;17.80;99.90;;;;;;6110520;23;20189;-84
2021/08/25 17:33:34;;;;;;;3.33;3.03;;;17.80;99.90;;;;;;6109732;23;20653;-84
2021/08/25 17:36:03;;;;;;;4.67;3.63;;;17.80;99.90;;;;;;6110286;23;20256;-84
2021/08/25 17:38:30;;;;;;;6.15;3.28;;;17.70;99.90;;;;;;6109671;23;20758;-84
2021/08/25 17:40:57;;;;;;;6.25;4.10;;;17.70;99.90;;;;;;6111059;23;20201;-84
2021/08/25 17:43:24;;;;;;;4.47;4.07;;;17.60;99.90;;;;;;6111204;23;20229;-83
2021/08/25 17:45:51;;;;;;;4.68;4.28;;;17.60;99.90;;;;;;6111617;23;20520;-84
2021/08/25 17:48:18;;;;;;;6.38;4.70;;;17.50;99.90;;;;;;6110123;23;20187;-83
2021/08/25 17:50:45;;;;;;;8.38;5.35;;;17.50;99.90;;;;;;6110397;23;20181;-84
2021/08/25 17:53:14;;;;;;;5.80;4.40;;;17.40;99.90;;;;;;6110723;23;20185;-83
2021/08/25 17:55:41;;;;;;;5.50;4.25;;;17.40;99.90;;;;;;6111663;23;20181;-84
2021/08/25 17:58:09;;;;;;;4.50;3.75;;;17.50;99.90;;;;;;6112456;23;20185;-83
2021/08/25 18:00:37;;;;;;;6.15;4.00;;;17.40;99.90;;;;;;6109960;23;20653;-83
2021/08/25 18:03:04;;;;;;;6.32;4.13;;;17.40;99.90;;;;;;6111183;23;20593;-83
2021/08/25 18:05:34;;;;;;;8.57;4.90;;;17.40;99.90;;;;;;6110373;23;20185;-83
2021/08/25 18:08:02;;;;;;;6.75;4.70;;;17.30;99.90;;;;;;6109980;23;20185;-83
2021/08/25 18:10:31;;;;;;;6.60;3.88;;;17.30;99.90;;;;;;6108770;23;20207;-82
2021/08/25 18:12:58;;;;;;;6.22;3.67;;;17.30;99.90;;;;;;6108498;23;20185;-83
2021/08/25 18:15:25;;;;;;;4.28;3.35;;;17.30;99.90;;;;;;6108582;23;20758;-83
2021/08/25 18:17:53;;;;;;;4.53;4.10;;;17.30;99.90;;;;;;6110029;23;20180;-84
2021/08/25 18:20:21;;;;;;;4.82;3.50;;;17.20;99.90;;;;;;6120834;23;20413;-83
2021/08/25 18:22:48;;;;;;;7.57;6.22;;;17.10;99.90;;;;;;6123161;23;20212;-83
2021/08/25 18:25:15;;;;;;;4.47;3.13;;;17.10;99.90;;;;;;6124741;23;20240;-82
2021/08/25 18:27:44;;;;;;;3.97;3.57;;;17.00;99.90;;;;;;6123440;23;20189;-82
2021/08/25 18:30:12;;;;;;;3.88;3.40;;;17.00;99.90;;;;;;6122093;23;20408;-82
2021/08/25 18:32:39;;;;;;;3.47;3.17;;;16.90;99.90;;;;;;6122609;23;20232;-82
2021/08/25 18:35:08;;;;;;;2.95;2.65;;;16.90;99.90;;;;;;6123325;23;20169;-82
2021/08/25 18:37:35;;;;;;;6.50;3.28;;;16.90;99.90;;;;;;6123355;23;20218;-83
2021/08/25 18:40:03;;;;;;;4.85;2.40;;;16.80;99.90;;;;;;6123122;23;20241;-86
2021/08/25 18:42:31;;;;;;;4.10;3.70;;;16.80;99.90;;;;;;6122012;23;20248;-85
2021/08/25 18:45:00;;;;;;;4.05;3.17;;;16.90;99.90;;;;;;6123225;23;20209;-85
2021/08/25 18:47:27;;;;;;;4.70;3.10;;;16.80;99.90;;;;;;6122437;23;20222;-84
2021/08/25 18:49:54;;;;;;;3.70;2.80;;;16.80;99.90;;;;;;6122349;23;20170;-85
2021/08/25 18:52:23;;;;;;;4.30;3.30;;;16.80;99.90;;;;;;6112158;23;20174;-86
2021/08/25 18:54:51;;;;;;;4.60;3.00;;;16.80;99.90;;;;;;6107668;23;20184;-85
2021/08/25 18:57:18;;;;;;;4.40;2.60;;;16.80;99.90;;;;;;6106446;23;20295;-85
2021/08/25 18:59:46;;;;;;;5.60;2.88;;;16.80;99.90;;;;;;6109025;23;20575;-84
2021/08/25 19:02:15;;;;;;;3.90;2.72;;;16.80;99.90;;;;;;6110319;23;20208;-84
2021/08/25 19:04:42;;;;;;;3.30;2.80;;;16.80;99.90;;;;;;6111323;23;20196;-83
2021/08/25 19:07:09;;;;;;;2.72;2.35;;;16.80;99.90;;;;;;6112567;23;20224;-84
2021/08/25 19:09:36;;;;;;;2.33;1.93;;;16.80;99.90;;;;;;6113146;23;20183;-83
2021/08/25 19:12:06;;;;;;;2.58;2.05;;;16.80;99.90;;;;;;6119199;23;20413;-85
2021/08/25 19:14:42;;;;;;;3.05;2.20;;;16.90;99.90;;;;;;6124709;23;20186;-84
2021/08/25 19:17:29;;;;;;;2.60;2.40;;;16.90;99.90;;;;;;6124428;23;20195;-83
2021/08/25 19:19:56;;;;;;;2.35;1.70;;;16.80;99.90;;;;;;6124396;23;20162;-84
2021/08/25 19:22:23;;;;;;;4.50;2.55;;;16.80;99.90;;;;;;6124525;23;20733;-86
2021/08/25 19:24:51;;;;;;;3.53;2.40;;;16.80;99.90;;;;;;6123500;23;20156;-86
2021/08/25 19:27:18;;;;;;;2.33;2.13;;;16.80;99.90;;;;;;6122835;23;20184;-86
2021/08/25 19:29:48;;;;;;;2.13;1.92;;;16.80;99.90;;;;;;6122615;23;20195;-86
2021/08/25 19:32:15;;;;;;;1.70;1.60;;;16.80;99.90;;;;;;6122384;23;20171;-84
2021/08/25 19:34:48;;;;;;;2.80;2.00;;;16.70;99.90;;;;;;6122681;23;20196;-89
2021/08/25 19:37:18;;;;;;;2.65;1.60;;;16.80;99.90;;;;;;6122629;23;20203;-88
2021/08/25 19:39:49;;;;;;;4.45;2.15;;;16.80;99.90;;;;;;6122086;23;20191;-86
2021/08/25 19:42:19;;;;;;;2.53;2.03;;;16.80;99.90;;;;;;6109368;23;20507;-86
2021/08/25 20:12:59;;;;;;;3.08;1.95;;;16.80;99.90;;;;;;5975784;23;20214;-84
2021/08/25 20:15:26;;;;;;;5.32;2.67;;;16.90;99.90;;;;;;6050259;23;20162;-87
2021/08/25 20:17:55;;;;;;;3.22;2.15;;;16.90;99.90;;;;;;6133199;23;20264;-87
2021/08/25 20:20:25;;;;;;;3.05;1.92;;;16.90;99.90;;;;;;6135517;23;20183;-86
2021/08/25 20:22:52;;;;;;;3.40;2.25;;;16.90;99.90;;;;;;6132887;23;20246;-86
2021/08/25 20:25:20;;;;;;;5.57;3.30;;;17.00;99.90;;;;;;6133334;23;20172;-84
2021/08/25 20:27:48;;;;;;;3.25;2.55;;;17.00;99.90;;;;;;6135870;23;20204;-86
2021/08/25 20:30:15;;;;;;;4.18;2.60;;;16.90;99.90;;;;;;6141535;23;20865;-85
2021/08/25 20:32:42;;;;;;;6.15;2.55;;;16.90;99.90;;;;;;6141583;23;20177;-83
2021/08/25 20:35:11;;;;;;;8.27;4.18;;;17.00;99.90;;;;;;6139767;23;20183;-88
2021/08/25 20:37:38;;;;;;;12.23;3.53;;;17.00;99.90;;;;;;6134158;23;20211;-86
2021/08/25 20:40:07;;;;;;;6.88;3.35;;;17.00;99.90;;;;;;6131080;23;20548;-88
2021/08/25 20:42:34;;;;;;;5.47;3.97;;;17.00;99.90;;;;;;6134233;23;20223;-86
2021/08/25 20:47:50;;;;;;;12.65;5.20;;;17.00;99.90;;;;;;6134287;23;20667;-85
2021/08/25 20:50:30;;;;;;;6.80;3.70;;;17.00;99.90;;;;;;6138121;23;20202;-84
2021/08/25 20:53:00;;;;;;;9.10;4.33;;;16.90;99.90;;;;;;6140761;23;20415;-84
2021/08/25 20:55:28;;;;;;;8.00;3.60;;;16.90;99.90;;;;;;6142883;23;20459;-83
2021/08/25 20:57:56;;;;;;;6.05;4.38;;;16.90;99.90;;;;;;6142995;23;20188;-83
2021/08/25 21:00:23;;;;;;;12.80;4.40;;;16.90;99.90;;;;;;6143703;23;20182;-84
2021/08/25 21:02:50;;;;;;;12.27;4.35;;;16.90;99.90;;;;;;6143747;23;20223;-85
2021/08/25 21:05:19;;;;;;;6.97;3.70;;;16.90;99.90;;;;;;6142937;23;20194;-84
2021/08/25 21:07:46;;;;;;;4.78;3.13;;;16.90;99.90;;;;;;6142653;23;20199;-84